sensor_id;sensor_type;location;lat;lon;timestamp;temperature;humidity
18741;DHT22;9499;52.472;13.448;2023-02-15T00:00:25;4.80;39.00
18741;DHT22;9499;52.472;13.448;2023-02-15T00:02:52;4.80;39.00
18741;DHT22;9499;52.472;13.448;2023-02-15T00:05:20;4.70;41.00
18741;DHT22;9499;52.472;13.448;2023-02-15T00:07:46;4.70;43.00
18741;DHT22;9499;52.472;13.448;2023-02-15T00:10:13;4.70;46.40
18741;DHT22;9499;52.472;13.448;2023-02-15T00:12:39;4.70;47.50
18741;DHT22;9499;52.472;13.448;2023-02-15T00:15:06;4.70;48.60
18741;DHT22;9499;52.472;13.448;2023-02-15T00:17:33;4.70;47.80
18741;DHT22;9499;52.472;13.448;2023-02-15T00:19:59;4.70;45.80
18741;DHT22;9499;52.472;13.448;2023-02-15T00:22:27;4.70;49.30
18741;DHT22;9499;52.472;13.448;2023-02-15T00:24:54;4.60;52.00
18741;DHT22;9499;52.472;13.448;2023-02-15T00:27:20;4.60;51.90
18741;DHT22;9499;52.472;13.448;2023-02-15T00:29:47;4.60;50.80
18741;DHT22;9499;52.472;13.448;2023-02-15T00:32:13;4.50;55.00
18741;DHT22;9499;52.472;13.448;2023-02-15T00:34:40;4.50;59.30
18741;DHT22;9499;52.472;13.448;2023-02-15T00:37:06;4.50;63.70
18741;DHT22;9499;52.472;13.448;2023-02-15T00:39:34;4.50;64.00
18741;DHT22;9499;52.472;13.448;2023-02-15T00:42:01;4.50;58.20
18741;DHT22;9499;52.472;13.448;2023-02-15T00:44:27;4.40;57.40
18741;DHT22;9499;52.472;13.448;2023-02-15T00:46:54;4.40;65.50
18741;DHT22;9499;52.472;13.448;2023-02-15T00:49:20;4.40;68.40
18741;DHT22;9499;52.472;13.448;2023-02-15T00:51:47;4.40;70.40
18741;DHT22;9499;52.472;13.448;2023-02-15T00:54:13;4.30;65.80
18741;DHT22;9499;52.472;13.448;2023-02-15T00:56:41;4.30;72.50
18741;DHT22;9499;52.472;13.448;2023-02-15T00:59:08;4.30;70.90
18741;DHT22;9499;52.472;13.448;2023-02-15T01:01:34;4.30;73.20
18741;DHT22;9499;52.472;13.448;2023-02-15T01:04:01;4.30;71.80
18741;DHT22;9499;52.472;13.448;2023-02-15T01:06:28;4.30;70.10
18741;DHT22;9499;52.472;13.448;2023-02-15T01:08:56;4.30;71.10
18741;DHT22;9499;52.472;13.448;2023-02-15T01:11:22;4.30;66.60
18741;DHT22;9499;52.472;13.448;2023-02-15T01:13:52;4.20;72.70
18741;DHT22;9499;52.472;13.448;2023-02-15T01:16:19;4.20;82.70
18741;DHT22;9499;52.472;13.448;2023-02-15T01:18:46;4.10;86.70
18741;DHT22;9499;52.472;13.448;2023-02-15T01:21:15;4.10;90.70
18741;DHT22;9499;52.472;13.448;2023-02-15T01:23:42;4.10;84.60
18741;DHT22;9499;52.472;13.448;2023-02-15T01:26:09;4.10;90.40
18741;DHT22;9499;52.472;13.448;2023-02-15T01:28:37;4.00;86.40
18741;DHT22;9499;52.472;13.448;2023-02-15T01:31:09;4.00;90.00
18741;DHT22;9499;52.472;13.448;2023-02-15T01:33:36;4.00;91.70
18741;DHT22;9499;52.472;13.448;2023-02-15T01:36:03;4.00;91.00
18741;DHT22;9499;52.472;13.448;2023-02-15T01:38:30;4.00;90.70
18741;DHT22;9499;52.472;13.448;2023-02-15T01:40:57;4.00;91.50
18741;DHT22;9499;52.472;13.448;2023-02-15T01:43:45;3.90;93.90
18741;DHT22;9499;52.472;13.448;2023-02-15T01:46:16;3.90;92.30
18741;DHT22;9499;52.472;13.448;2023-02-15T01:48:46;3.90;94.30
18741;DHT22;9499;52.472;13.448;2023-02-15T01:51:14;3.90;95.30
18741;DHT22;9499;52.472;13.448;2023-02-15T01:53:47;3.80;95.60
18741;DHT22;9499;52.472;13.448;2023-02-15T01:56:19;3.80;98.10
18741;DHT22;9499;52.472;13.448;2023-02-15T01:58:46;3.80;99.70
18741;DHT22;9499;52.472;13.448;2023-02-15T02:01:15;3.80;99.10
18741;DHT22;9499;52.472;13.448;2023-02-15T02:03:49;3.70;99.90
18741;DHT22;9499;52.472;13.448;2023-02-15T02:06:16;3.70;99.90
18741;DHT22;9499;52.472;13.448;2023-02-15T02:08:43;3.70;99.90
18741;DHT22;9499;52.472;13.448;2023-02-15T02:11:11;3.60;99.90
18741;DHT22;9499;52.472;13.448;2023-02-15T02:13:38;3.70;99.90
18741;DHT22;9499;52.472;13.448;2023-02-15T02:16:10;3.60;99.90
18741;DHT22;9499;52.472;13.448;2023-02-15T02:18:48;3.60;99.90
18741;DHT22;9499;52.472;13.448;2023-02-15T02:21:45;3.60;99.90
18741;DHT22;9499;52.472;13.448;2023-02-15T02:24:40;3.50;99.90
18741;DHT22;9499;52.472;13.448;2023-02-15T02:27:23;3.50;99.90
18741;DHT22;9499;52.472;13.448;2023-02-15T02:30:26;3.50;99.90
18741;DHT22;9499;52.472;13.448;2023-02-15T02:33:28;3.40;99.90
18741;DHT22;9499;52.472;13.448;2023-02-15T02:36:06;3.40;99.90
18741;DHT22;9499;52.472;13.448;2023-02-15T02:38:42;3.30;99.90
18741;DHT22;9499;52.472;13.448;2023-02-15T02:41:17;3.30;99.90
18741;DHT22;9499;52.472;13.448;2023-02-15T02:43:50;3.20;99.90
18741;DHT22;9499;52.472;13.448;2023-02-15T02:46:22;3.20;99.90
18741;DHT22;9499;52.472;13.448;2023-02-15T02:48:52;3.10;99.90
18741;DHT22;9499;52.472;13.448;2023-02-15T02:51:19;3.10;99.90
18741;DHT22;9499;52.472;13.448;2023-02-15T02:53:49;3.10;99.90
18741;DHT22;9499;52.472;13.448;2023-02-15T02:56:21;3.00;99.90
18741;DHT22;9499;52.472;13.448;2023-02-15T02:58:50;3.00;99.90
18741;DHT22;9499;52.472;13.448;2023-02-15T03:01:24;3.00;99.90
18741;DHT22;9499;52.472;13.448;2023-02-15T03:03:57;3.00;99.90
18741;DHT22;9499;52.472;13.448;2023-02-15T03:06:28;3.00;99.90
18741;DHT22;9499;52.472;13.448;2023-02-15T03:09:06;3.00;99.90
18741;DHT22;9499;52.472;13.448;2023-02-15T03:11:40;2.90;99.90
18741;DHT22;9499;52.472;13.448;2023-02-15T03:14:06;2.90;99.90
18741;DHT22;9499;52.472;13.448;2023-02-15T03:16:33;2.80;99.90
18741;DHT22;9499;52.472;13.448;2023-02-15T03:19:05;2.80;99.90
18741;DHT22;9499;52.472;13.448;2023-02-15T03:21:35;2.80;99.90
18741;DHT22;9499;52.472;13.448;2023-02-15T03:24:07;2.80;99.90
18741;DHT22;9499;52.472;13.448;2023-02-15T03:26:36;2.80;99.90
18741;DHT22;9499;52.472;13.448;2023-02-15T03:29:05;2.80;99.90
18741;DHT22;9499;52.472;13.448;2023-02-15T03:31:35;2.80;99.90
18741;DHT22;9499;52.472;13.448;2023-02-15T03:34:08;2.70;99.90
18741;DHT22;9499;52.472;13.448;2023-02-15T03:36:42;2.70;99.90
18741;DHT22;9499;52.472;13.448;2023-02-15T03:39:15;2.60;99.90
18741;DHT22;9499;52.472;13.448;2023-02-15T03:41:48;2.60;99.90
18741;DHT22;9499;52.472;13.448;2023-02-15T03:44:21;2.50;99.90
18741;DHT22;9499;52.472;13.448;2023-02-15T03:46:53;2.50;99.90
18741;DHT22;9499;52.472;13.448;2023-02-15T03:49:26;2.50;99.90
18741;DHT22;9499;52.472;13.448;2023-02-15T03:51:56;2.40;99.90
18741;DHT22;9499;52.472;13.448;2023-02-15T03:54:26;2.30;99.90
18741;DHT22;9499;52.472;13.448;2023-02-15T03:57:12;2.30;99.90
18741;DHT22;9499;52.472;13.448;2023-02-15T03:59:57;2.20;99.90
18741;DHT22;9499;52.472;13.448;2023-02-15T04:02:55;2.20;99.90
18741;DHT22;9499;52.472;13.448;2023-02-15T04:05:27;2.20;99.90
18741;DHT22;9499;52.472;13.448;2023-02-15T04:07:53;2.10;99.90
18741;DHT22;9499;52.472;13.448;2023-02-15T04:10:20;2.10;99.90
18741;DHT22;9499;52.472;13.448;2023-02-15T04:13:04;2.00;99.90
18741;DHT22;9499;52.472;13.448;2023-02-15T04:15:30;2.00;99.90
18741;DHT22;9499;52.472;13.448;2023-02-15T04:18:15;2.00;99.90
18741;DHT22;9499;52.472;13.448;2023-02-15T04:20:44;1.90;99.90
18741;DHT22;9499;52.472;13.448;2023-02-15T04:23:28;1.90;99.90
18741;DHT22;9499;52.472;13.448;2023-02-15T04:26:12;1.80;99.90
18741;DHT22;9499;52.472;13.448;2023-02-15T04:28:39;1.80;99.90
18741;DHT22;9499;52.472;13.448;2023-02-15T04:31:05;1.80;99.90
18741;DHT22;9499;52.472;13.448;2023-02-15T04:33:32;1.70;99.90
18741;DHT22;9499;52.472;13.448;2023-02-15T04:36:00;1.70;99.90
18741;DHT22;9499;52.472;13.448;2023-02-15T04:38:27;1.70;99.90
18741;DHT22;9499;52.472;13.448;2023-02-15T04:40:53;1.60;99.90
18741;DHT22;9499;52.472;13.448;2023-02-15T04:43:20;1.60;99.90
18741;DHT22;9499;52.472;13.448;2023-02-15T04:45:49;1.60;99.90
18741;DHT22;9499;52.472;13.448;2023-02-15T04:48:17;1.50;99.90
18741;DHT22;9499;52.472;13.448;2023-02-15T04:50:43;1.50;99.90
18741;DHT22;9499;52.472;13.448;2023-02-15T04:53:11;1.50;99.90
18741;DHT22;9499;52.472;13.448;2023-02-15T04:55:38;1.50;99.90
18741;DHT22;9499;52.472;13.448;2023-02-15T04:58:04;1.50;99.90
18741;DHT22;9499;52.472;13.448;2023-02-15T05:00:31;1.40;99.90
18741;DHT22;9499;52.472;13.448;2023-02-15T05:02:57;1.40;99.90
18741;DHT22;9499;52.472;13.448;2023-02-15T05:05:24;1.40;99.90
18741;DHT22;9499;52.472;13.448;2023-02-15T05:07:50;1.40;99.90
18741;DHT22;9499;52.472;13.448;2023-02-15T05:10:18;1.40;99.90
18741;DHT22;9499;52.472;13.448;2023-02-15T05:12:45;1.40;99.90
18741;DHT22;9499;52.472;13.448;2023-02-15T05:15:11;1.40;99.90
18741;DHT22;9499;52.472;13.448;2023-02-15T05:17:38;1.30;99.90
18741;DHT22;9499;52.472;13.448;2023-02-15T05:20:05;1.30;99.90
18741;DHT22;9499;52.472;13.448;2023-02-15T05:22:32;1.30;99.90
18741;DHT22;9499;52.472;13.448;2023-02-15T05:24:58;1.20;99.90
18741;DHT22;9499;52.472;13.448;2023-02-15T05:27:44;1.20;99.90
18741;DHT22;9499;52.472;13.448;2023-02-15T05:30:28;1.20;99.90
18741;DHT22;9499;52.472;13.448;2023-02-15T05:32:54;1.20;99.90
18741;DHT22;9499;52.472;13.448;2023-02-15T05:35:21;1.20;99.90
18741;DHT22;9499;52.472;13.448;2023-02-15T05:37:47;1.20;99.90
18741;DHT22;9499;52.472;13.448;2023-02-15T05:40:14;1.20;99.90
18741;DHT22;9499;52.472;13.448;2023-02-15T05:42:40;1.10;99.90
18741;DHT22;9499;52.472;13.448;2023-02-15T05:45:08;1.10;99.90
18741;DHT22;9499;52.472;13.448;2023-02-15T05:47:35;1.10;99.90
18741;DHT22;9499;52.472;13.448;2023-02-15T05:50:02;1.10;99.90
18741;DHT22;9499;52.472;13.448;2023-02-15T05:52:28;1.10;99.90
18741;DHT22;9499;52.472;13.448;2023-02-15T05:54:55;1.10;99.90
18741;DHT22;9499;52.472;13.448;2023-02-15T05:57:21;1.10;99.90
18741;DHT22;9499;52.472;13.448;2023-02-15T05:59:48;1.10;99.90
18741;DHT22;9499;52.472;13.448;2023-02-15T06:02:15;1.00;99.90
18741;DHT22;9499;52.472;13.448;2023-02-15T06:04:42;1.00;99.90
18741;DHT22;9499;52.472;13.448;2023-02-15T06:07:08;1.00;99.90
18741;DHT22;9499;52.472;13.448;2023-02-15T06:09:35;1.00;99.90
18741;DHT22;9499;52.472;13.448;2023-02-15T06:12:01;1.00;99.90
18741;DHT22;9499;52.472;13.448;2023-02-15T06:14:28;0.90;99.90
18741;DHT22;9499;52.472;13.448;2023-02-15T06:16:54;0.90;99.90
18741;DHT22;9499;52.472;13.448;2023-02-15T06:19:22;0.90;99.90
18741;DHT22;9499;52.472;13.448;2023-02-15T06:21:49;0.90;99.90
18741;DHT22;9499;52.472;13.448;2023-02-15T06:24:15;0.90;99.90
18741;DHT22;9499;52.472;13.448;2023-02-15T06:26:42;0.80;99.90
18741;DHT22;9499;52.472;13.448;2023-02-15T06:29:08;0.80;99.90
18741;DHT22;9499;52.472;13.448;2023-02-15T06:31:35;0.80;99.90
18741;DHT22;9499;52.472;13.448;2023-02-15T06:34:01;0.80;99.90
18741;DHT22;9499;52.472;13.448;2023-02-15T06:36:30;0.70;99.90
18741;DHT22;9499;52.472;13.448;2023-02-15T06:38:57;0.70;99.90
18741;DHT22;9499;52.472;13.448;2023-02-15T06:41:24;0.70;99.90
18741;DHT22;9499;52.472;13.448;2023-02-15T06:43:50;0.60;99.90
18741;DHT22;9499;52.472;13.448;2023-02-15T06:46:17;0.60;99.90
18741;DHT22;9499;52.472;13.448;2023-02-15T06:48:43;0.50;99.90
18741;DHT22;9499;52.472;13.448;2023-02-15T06:51:10;0.50;99.90
18741;DHT22;9499;52.472;13.448;2023-02-15T06:53:38;0.50;99.90
18741;DHT22;9499;52.472;13.448;2023-02-15T06:56:07;0.50;99.90
18741;DHT22;9499;52.472;13.448;2023-02-15T06:58:34;0.50;99.90
18741;DHT22;9499;52.472;13.448;2023-02-15T07:01:01;0.50;99.90
18741;DHT22;9499;52.472;13.448;2023-02-15T07:03:27;0.60;99.90
18741;DHT22;9499;52.472;13.448;2023-02-15T07:05:54;0.50;99.90
18741;DHT22;9499;52.472;13.448;2023-02-15T07:08:21;0.50;99.90
18741;DHT22;9499;52.472;13.448;2023-02-15T07:10:49;0.50;99.90
18741;DHT22;9499;52.472;13.448;2023-02-15T07:13:16;0.50;99.90
18741;DHT22;9499;52.472;13.448;2023-02-15T07:15:42;0.60;99.90
18741;DHT22;9499;52.472;13.448;2023-02-15T07:18:08;0.60;99.90
18741;DHT22;9499;52.472;13.448;2023-02-15T07:20:36;0.60;99.90
18741;DHT22;9499;52.472;13.448;2023-02-15T07:23:03;0.60;99.90
18741;DHT22;9499;52.472;13.448;2023-02-15T07:25:30;0.60;99.90
18741;DHT22;9499;52.472;13.448;2023-02-15T07:27:58;0.60;99.90
18741;DHT22;9499;52.472;13.448;2023-02-15T07:30:25;0.60;99.90
18741;DHT22;9499;52.472;13.448;2023-02-15T07:32:54;0.60;99.90
18741;DHT22;9499;52.472;13.448;2023-02-15T07:35:47;0.70;99.90
18741;DHT22;9499;52.472;13.448;2023-02-15T07:38:15;0.70;99.90
18741;DHT22;9499;52.472;13.448;2023-02-15T07:40:41;0.70;99.90
18741;DHT22;9499;52.472;13.448;2023-02-15T07:43:09;0.60;99.90
18741;DHT22;9499;52.472;13.448;2023-02-15T07:45:36;0.70;99.90
18741;DHT22;9499;52.472;13.448;2023-02-15T07:48:04;0.70;99.90
18741;DHT22;9499;52.472;13.448;2023-02-15T07:50:31;0.80;99.90
18741;DHT22;9499;52.472;13.448;2023-02-15T07:52:58;0.80;99.90
18741;DHT22;9499;52.472;13.448;2023-02-15T07:55:24;0.70;99.90
18741;DHT22;9499;52.472;13.448;2023-02-15T07:57:51;0.70;99.90
18741;DHT22;9499;52.472;13.448;2023-02-15T08:00:21;0.60;99.90
18741;DHT22;9499;52.472;13.448;2023-02-15T08:02:51;0.60;99.90
18741;DHT22;9499;52.472;13.448;2023-02-15T08:05:38;0.60;99.90
18741;DHT22;9499;52.472;13.448;2023-02-15T08:08:06;0.70;99.90
18741;DHT22;9499;52.472;13.448;2023-02-15T08:10:32;0.60;99.90
18741;DHT22;9499;52.472;13.448;2023-02-15T08:13:17;0.60;99.90
18741;DHT22;9499;52.472;13.448;2023-02-15T08:15:49;0.70;99.90
18741;DHT22;9499;52.472;13.448;2023-02-15T08:18:15;0.70;99.90
18741;DHT22;9499;52.472;13.448;2023-02-15T08:20:42;0.80;99.90
18741;DHT22;9499;52.472;13.448;2023-02-15T08:23:08;0.80;99.90
18741;DHT22;9499;52.472;13.448;2023-02-15T08:25:35;0.90;99.90
18741;DHT22;9499;52.472;13.448;2023-02-15T08:28:01;0.90;99.90
18741;DHT22;9499;52.472;13.448;2023-02-15T08:30:28;0.90;99.90
18741;DHT22;9499;52.472;13.448;2023-02-15T08:32:56;0.90;99.90
18741;DHT22;9499;52.472;13.448;2023-02-15T08:35:22;1.00;99.90
18741;DHT22;9499;52.472;13.448;2023-02-15T08:37:49;1.00;99.90
18741;DHT22;9499;52.472;13.448;2023-02-15T08:40:15;1.00;99.90
18741;DHT22;9499;52.472;13.448;2023-02-15T08:42:41;1.10;99.90
18741;DHT22;9499;52.472;13.448;2023-02-15T08:45:08;1.10;99.90
18741;DHT22;9499;52.472;13.448;2023-02-15T08:47:35;1.10;99.90
18741;DHT22;9499;52.472;13.448;2023-02-15T08:50:03;1.10;99.90
18741;DHT22;9499;52.472;13.448;2023-02-15T08:52:30;1.10;99.90
18741;DHT22;9499;52.472;13.448;2023-02-15T08:54:57;1.20;99.90
18741;DHT22;9499;52.472;13.448;2023-02-15T08:57:23;1.20;99.90
18741;DHT22;9499;52.472;13.448;2023-02-15T08:59:50;1.20;99.90
18741;DHT22;9499;52.472;13.448;2023-02-15T09:02:16;1.20;99.90
18741;DHT22;9499;52.472;13.448;2023-02-15T09:04:43;1.20;99.90
18741;DHT22;9499;52.472;13.448;2023-02-15T09:07:10;1.20;99.90
18741;DHT22;9499;52.472;13.448;2023-02-15T09:09:37;1.20;99.90
18741;DHT22;9499;52.472;13.448;2023-02-15T09:12:03;1.20;99.90
18741;DHT22;9499;52.472;13.448;2023-02-15T09:14:30;1.30;99.90
18741;DHT22;9499;52.472;13.448;2023-02-15T09:16:57;1.40;99.90
18741;DHT22;9499;52.472;13.448;2023-02-15T09:19:24;1.50;99.90
18741;DHT22;9499;52.472;13.448;2023-02-15T09:21:50;1.50;99.90
18741;DHT22;9499;52.472;13.448;2023-02-15T09:24:19;1.60;99.90
18741;DHT22;9499;52.472;13.448;2023-02-15T09:26:46;1.60;99.90
18741;DHT22;9499;52.472;13.448;2023-02-15T09:29:14;1.70;99.90
18741;DHT22;9499;52.472;13.448;2023-02-15T09:31:43;1.70;99.90
18741;DHT22;9499;52.472;13.448;2023-02-15T09:34:10;1.80;99.90
18741;DHT22;9499;52.472;13.448;2023-02-15T09:36:38;1.90;99.90
18741;DHT22;9499;52.472;13.448;2023-02-15T09:39:08;1.80;99.90
18741;DHT22;9499;52.472;13.448;2023-02-15T09:42:02;1.80;99.90
18741;DHT22;9499;52.472;13.448;2023-02-15T09:44:47;1.90;99.90
18741;DHT22;9499;52.472;13.448;2023-02-15T09:47:28;1.90;99.90
18741;DHT22;9499;52.472;13.448;2023-02-15T09:50:03;2.00;99.90
18741;DHT22;9499;52.472;13.448;2023-02-15T09:52:46;2.00;99.90
18741;DHT22;9499;52.472;13.448;2023-02-15T09:55:30;2.00;99.90
18741;DHT22;9499;52.472;13.448;2023-02-15T09:58:08;2.00;99.90
18741;DHT22;9499;52.472;13.448;2023-02-15T10:00:45;2.10;99.90
18741;DHT22;9499;52.472;13.448;2023-02-15T10:03:25;2.20;99.90
18741;DHT22;9499;52.472;13.448;2023-02-15T10:06:07;2.30;99.90
18741;DHT22;9499;52.472;13.448;2023-02-15T10:08:53;2.40;99.90
18741;DHT22;9499;52.472;13.448;2023-02-15T10:11:27;2.50;99.90
18741;DHT22;9499;52.472;13.448;2023-02-15T10:14:21;2.50;99.90
18741;DHT22;9499;52.472;13.448;2023-02-15T10:16:58;2.50;99.90
18741;DHT22;9499;52.472;13.448;2023-02-15T10:19:37;2.50;99.90
18741;DHT22;9499;52.472;13.448;2023-02-15T10:22:19;2.60;99.90
18741;DHT22;9499;52.472;13.448;2023-02-15T10:25:01;2.70;99.90
18741;DHT22;9499;52.472;13.448;2023-02-15T10:27:40;2.80;99.90
18741;DHT22;9499;52.472;13.448;2023-02-15T10:30:12;2.80;99.90
18741;DHT22;9499;52.472;13.448;2023-02-15T10:32:43;2.90;99.90
18741;DHT22;9499;52.472;13.448;2023-02-15T10:35:19;3.00;99.90
18741;DHT22;9499;52.472;13.448;2023-02-15T10:38:09;3.10;99.90
18741;DHT22;9499;52.472;13.448;2023-02-15T10:40:44;3.20;99.90
18741;DHT22;9499;52.472;13.448;2023-02-15T10:43:24;3.30;99.90
18741;DHT22;9499;52.472;13.448;2023-02-15T10:46:03;3.30;99.90
18741;DHT22;9499;52.472;13.448;2023-02-15T10:48:52;3.40;99.90
18741;DHT22;9499;52.472;13.448;2023-02-15T10:51:30;3.50;99.90
18741;DHT22;9499;52.472;13.448;2023-02-15T10:54:07;3.50;99.90
18741;DHT22;9499;52.472;13.448;2023-02-15T10:56:40;3.70;99.90
18741;DHT22;9499;52.472;13.448;2023-02-15T10:59:25;3.60;99.90
18741;DHT22;9499;52.472;13.448;2023-02-15T11:01:59;3.70;99.90
18741;DHT22;9499;52.472;13.448;2023-02-15T11:04:40;3.80;99.90
18741;DHT22;9499;52.472;13.448;2023-02-15T11:07:16;4.00;99.90
18741;DHT22;9499;52.472;13.448;2023-02-15T11:09:47;4.40;99.90
18741;DHT22;9499;52.472;13.448;2023-02-15T11:12:17;4.80;99.90
18741;DHT22;9499;52.472;13.448;2023-02-15T11:14:49;5.00;99.90
18741;DHT22;9499;52.472;13.448;2023-02-15T11:17:23;5.10;99.90
18741;DHT22;9499;52.472;13.448;2023-02-15T11:19:56;5.30;99.90
18741;DHT22;9499;52.472;13.448;2023-02-15T11:22:26;5.50;99.90
18741;DHT22;9499;52.472;13.448;2023-02-15T11:24:52;5.70;99.90
18741;DHT22;9499;52.472;13.448;2023-02-15T11:27:22;5.90;1.00
18741;DHT22;9499;52.472;13.448;2023-02-15T11:29:55;6.00;1.00
18741;DHT22;9499;52.472;13.448;2023-02-15T11:32:27;6.20;1.00
18741;DHT22;9499;52.472;13.448;2023-02-15T11:34:58;6.30;1.00
18741;DHT22;9499;52.472;13.448;2023-02-15T11:37:32;6.40;1.00
18741;DHT22;9499;52.472;13.448;2023-02-15T11:40:01;6.50;1.00
18741;DHT22;9499;52.472;13.448;2023-02-15T11:42:30;6.50;1.00
18741;DHT22;9499;52.472;13.448;2023-02-15T11:45:01;6.70;1.00
18741;DHT22;9499;52.472;13.448;2023-02-15T11:47:29;6.90;1.00
18741;DHT22;9499;52.472;13.448;2023-02-15T11:49:56;7.10;1.00
18741;DHT22;9499;52.472;13.448;2023-02-15T11:52:23;7.30;1.00
18741;DHT22;9499;52.472;13.448;2023-02-15T11:54:51;7.50;1.00
18741;DHT22;9499;52.472;13.448;2023-02-15T11:57:23;7.80;1.00
18741;DHT22;9499;52.472;13.448;2023-02-15T11:59:56;8.00;1.00
18741;DHT22;9499;52.472;13.448;2023-02-15T12:02:23;8.30;1.00
18741;DHT22;9499;52.472;13.448;2023-02-15T12:04:55;8.40;1.00
18741;DHT22;9499;52.472;13.448;2023-02-15T12:07:25;8.40;99.90
18741;DHT22;9499;52.472;13.448;2023-02-15T12:09:59;8.40;99.90
18741;DHT22;9499;52.472;13.448;2023-02-15T12:12:28;8.50;1.00
18741;DHT22;9499;52.472;13.448;2023-02-15T12:14:56;8.50;1.00
18741;DHT22;9499;52.472;13.448;2023-02-15T12:17:25;8.80;99.90
18741;DHT22;9499;52.472;13.448;2023-02-15T12:19:56;9.10;99.90
18741;DHT22;9499;52.472;13.448;2023-02-15T12:22:25;9.30;99.90
18741;DHT22;9499;52.472;13.448;2023-02-15T12:24:54;9.40;99.90
18741;DHT22;9499;52.472;13.448;2023-02-15T12:27:24;9.40;99.90
18741;DHT22;9499;52.472;13.448;2023-02-15T12:29:55;9.60;99.90
18741;DHT22;9499;52.472;13.448;2023-02-15T12:32:25;9.90;99.90
18741;DHT22;9499;52.472;13.448;2023-02-15T12:34:59;10.00;99.90
18741;DHT22;9499;52.472;13.448;2023-02-15T12:37:28;10.20;99.90
18741;DHT22;9499;52.472;13.448;2023-02-15T12:39:58;10.30;99.90
18741;DHT22;9499;52.472;13.448;2023-02-15T12:42:26;10.30;97.80
18741;DHT22;9499;52.472;13.448;2023-02-15T12:44:57;10.30;99.90
18741;DHT22;9499;52.472;13.448;2023-02-15T12:47:24;10.30;81.10
18741;DHT22;9499;52.472;13.448;2023-02-15T12:50:13;10.40;94.40
18741;DHT22;9499;52.472;13.448;2023-02-15T12:52:45;10.40;48.70
18741;DHT22;9499;52.472;13.448;2023-02-15T12:55:22;10.60;45.70
18741;DHT22;9499;52.472;13.448;2023-02-15T12:57:57;10.80;1.00
18741;DHT22;9499;52.472;13.448;2023-02-15T13:00:30;11.00;1.00
18741;DHT22;9499;52.472;13.448;2023-02-15T13:02:58;11.20;1.00
18741;DHT22;9499;52.472;13.448;2023-02-15T13:05:33;11.30;1.00
18741;DHT22;9499;52.472;13.448;2023-02-15T13:08:03;11.40;1.00
18741;DHT22;9499;52.472;13.448;2023-02-15T13:10:33;11.50;1.00
18741;DHT22;9499;52.472;13.448;2023-02-15T13:13:01;11.50;1.00
18741;DHT22;9499;52.472;13.448;2023-02-15T13:15:32;11.60;1.00
18741;DHT22;9499;52.472;13.448;2023-02-15T13:18:01;11.70;1.00
18741;DHT22;9499;52.472;13.448;2023-02-15T13:20:30;11.80;1.00
18741;DHT22;9499;52.472;13.448;2023-02-15T13:23:00;12.00;99.90
18741;DHT22;9499;52.472;13.448;2023-02-15T13:25:32;12.20;99.90
18741;DHT22;9499;52.472;13.448;2023-02-15T13:28:02;12.30;99.90
18741;DHT22;9499;52.472;13.448;2023-02-15T13:30:34;12.20;99.90
18741;DHT22;9499;52.472;13.448;2023-02-15T13:33:03;11.90;99.90
18741;DHT22;9499;52.472;13.448;2023-02-15T13:35:38;11.80;1.00
18741;DHT22;9499;52.472;13.448;2023-02-15T13:38:18;11.80;1.00
18741;DHT22;9499;52.472;13.448;2023-02-15T13:40:52;11.90;1.00
18741;DHT22;9499;52.472;13.448;2023-02-15T13:43:35;12.10;1.00
18741;DHT22;9499;52.472;13.448;2023-02-15T13:46:19;12.40;99.90
18741;DHT22;9499;52.472;13.448;2023-02-15T13:49:02;12.50;96.50
18741;DHT22;9499;52.472;13.448;2023-02-15T13:51:43;12.70;1.00
18741;DHT22;9499;52.472;13.448;2023-02-15T13:54:33;12.90;1.00
18741;DHT22;9499;52.472;13.448;2023-02-15T13:57:18;13.00;99.90
18741;DHT22;9499;52.472;13.448;2023-02-15T13:59:58;13.00;8.40
18741;DHT22;9499;52.472;13.448;2023-02-15T14:03:00;13.00;99.90
18741;DHT22;9499;52.472;13.448;2023-02-15T14:05:35;12.80;99.90
18741;DHT22;9499;52.472;13.448;2023-02-15T14:08:11;12.60;1.00
18741;DHT22;9499;52.472;13.448;2023-02-15T14:10:46;12.60;1.00
18741;DHT22;9499;52.472;13.448;2023-02-15T14:13:45;12.50;1.00
18741;DHT22;9499;52.472;13.448;2023-02-15T14:16:20;12.40;99.90
18741;DHT22;9499;52.472;13.448;2023-02-15T14:18:58;12.30;99.90
18741;DHT22;9499;52.472;13.448;2023-02-15T14:21:30;12.10;1.00
18741;DHT22;9499;52.472;13.448;2023-02-15T14:24:11;12.10;1.00
18741;DHT22;9499;52.472;13.448;2023-02-15T14:26:47;12.00;1.00
18741;DHT22;9499;52.472;13.448;2023-02-15T14:29:20;12.00;1.00
18741;DHT22;9499;52.472;13.448;2023-02-15T14:31:54;11.90;1.00
18741;DHT22;9499;52.472;13.448;2023-02-15T14:34:24;11.90;1.00
18741;DHT22;9499;52.472;13.448;2023-02-15T14:36:52;12.00;1.00
18741;DHT22;9499;52.472;13.448;2023-02-15T14:39:29;12.10;1.00
18741;DHT22;9499;52.472;13.448;2023-02-15T14:42:20;12.10;1.00
18741;DHT22;9499;52.472;13.448;2023-02-15T14:44:49;12.00;1.00
18741;DHT22;9499;52.472;13.448;2023-02-15T14:47:20;11.70;1.00
18741;DHT22;9499;52.472;13.448;2023-02-15T14:49:48;11.70;1.00
18741;DHT22;9499;52.472;13.448;2023-02-15T14:52:14;11.40;1.00
18741;DHT22;9499;52.472;13.448;2023-02-15T14:54:57;11.20;19.30
18741;DHT22;9499;52.472;13.448;2023-02-15T14:57:25;11.10;99.90
18741;DHT22;9499;52.472;13.448;2023-02-15T14:59:54;11.00;99.90
18741;DHT22;9499;52.472;13.448;2023-02-15T15:02:25;10.90;99.90
18741;DHT22;9499;52.472;13.448;2023-02-15T15:05:00;10.90;99.90
18741;DHT22;9499;52.472;13.448;2023-02-15T15:07:28;10.80;99.90
18741;DHT22;9499;52.472;13.448;2023-02-15T15:10:07;10.70;99.90
18741;DHT22;9499;52.472;13.448;2023-02-15T15:12:42;10.70;99.90
18741;DHT22;9499;52.472;13.448;2023-02-15T15:15:12;10.60;99.90
18741;DHT22;9499;52.472;13.448;2023-02-15T15:17:55;10.60;99.90
18741;DHT22;9499;52.472;13.448;2023-02-15T15:20:46;10.60;99.90
18741;DHT22;9499;52.472;13.448;2023-02-15T15:23:39;10.60;99.90
18741;DHT22;9499;52.472;13.448;2023-02-15T15:29:00;10.50;99.90
18741;DHT22;9499;52.472;13.448;2023-02-15T15:31:38;10.50;99.90
18741;DHT22;9499;52.472;13.448;2023-02-15T15:37:37;10.50;99.90
18741;DHT22;9499;52.472;13.448;2023-02-15T15:40:33;10.40;99.90
18741;DHT22;9499;52.472;13.448;2023-02-15T15:43:32;10.40;99.90
18741;DHT22;9499;52.472;13.448;2023-02-15T15:46:13;10.40;99.90
18741;DHT22;9499;52.472;13.448;2023-02-15T15:48:41;10.30;99.90
18741;DHT22;9499;52.472;13.448;2023-02-15T15:51:14;10.30;99.90
18741;DHT22;9499;52.472;13.448;2023-02-15T15:53:45;10.20;99.90
18741;DHT22;9499;52.472;13.448;2023-02-15T15:56:19;10.10;99.90
18741;DHT22;9499;52.472;13.448;2023-02-15T15:58:50;10.10;99.90
18741;DHT22;9499;52.472;13.448;2023-02-15T16:01:24;10.00;99.90
18741;DHT22;9499;52.472;13.448;2023-02-15T16:03:54;10.00;99.90
18741;DHT22;9499;52.472;13.448;2023-02-15T16:06:30;9.90;99.90
18741;DHT22;9499;52.472;13.448;2023-02-15T16:08:57;9.80;99.90
18741;DHT22;9499;52.472;13.448;2023-02-15T16:11:25;9.70;1.00
18741;DHT22;9499;52.472;13.448;2023-02-15T16:13:53;9.60;1.00
18741;DHT22;9499;52.472;13.448;2023-02-15T16:16:23;9.60;1.00
18741;DHT22;9499;52.472;13.448;2023-02-15T16:18:51;9.50;1.00